Garrison, Iowa
Current Conditions -  °F | °C
As of 2:35 AM on Thursday 27 Nov 2014 (Local Time) from KVTI Reporting Station
Broken Clouds Broken Clouds  
Wind Chill: 11°   Ceiling: 1700
Heat Index: 23°   Visibility: 10mi
Dew Point: 19°   Wind: 13mph
Humidity: 83%   Direction: 310°NW
Pressure: 30.35"   Gusts: 16mph
Location:  42.14°N, 92.14°W
Report Text: KVTI 270835Z AUTO 31011G14KT 10SM SCT013 BKN017 BKN029 M05/M07 A3035 RMK AO2 T10491074
Loading
Personal Weather Stations






























Interactive Weather Map New forecast layout! Learn more

10-Day Weather Forecast

Advertisements
Track Severe Weather on mobile